sensor_id;sensor_type;location;lat;lon;timestamp;P1;durP1;ratioP1;P2;durP2;ratioP2
44456;SDS011;30159;49.316;8.558;2023-02-11T00:01:49;45.60;;;21.60;;
44456;SDS011;30159;49.316;8.558;2023-02-11T00:04:16;41.47;;;20.77;;
44456;SDS011;30159;49.316;8.558;2023-02-11T00:06:42;43.83;;;20.63;;
44456;SDS011;30159;49.316;8.558;2023-02-11T00:09:09;51.40;;;21.47;;
44456;SDS011;30159;49.316;8.558;2023-02-11T00:11:37;41.60;;;20.90;;
44456;SDS011;30159;49.316;8.558;2023-02-11T00:14:05;39.93;;;21.53;;
44456;SDS011;30159;49.316;8.558;2023-02-11T00:16:32;42.40;;;20.53;;
44456;SDS011;30159;49.316;8.558;2023-02-11T00:19:00;43.43;;;22.27;;
44456;SDS011;30159;49.316;8.558;2023-02-11T00:21:27;52.57;;;23.50;;
44456;SDS011;30159;49.316;8.558;2023-02-11T00:23:55;42.47;;;21.17;;
44456;SDS011;30159;49.316;8.558;2023-02-11T00:26:24;40.23;;;22.53;;
44456;SDS011;30159;49.316;8.558;2023-02-11T00:28:53;52.33;;;23.17;;
44456;SDS011;30159;49.316;8.558;2023-02-11T00:31:23;42.07;;;22.57;;
44456;SDS011;30159;49.316;8.558;2023-02-11T00:33:50;46.43;;;20.97;;
44456;SDS011;30159;49.316;8.558;2023-02-11T00:36:18;39.00;;;21.23;;
44456;SDS011;30159;49.316;8.558;2023-02-11T00:38:46;46.27;;;21.97;;
44456;SDS011;30159;49.316;8.558;2023-02-11T00:41:14;44.37;;;20.93;;
44456;SDS011;30159;49.316;8.558;2023-02-11T00:43:41;44.60;;;20.70;;
44456;SDS011;30159;49.316;8.558;2023-02-11T00:46:09;40.30;;;21.07;;
44456;SDS011;30159;49.316;8.558;2023-02-11T00:48:37;41.03;;;21.53;;
44456;SDS011;30159;49.316;8.558;2023-02-11T00:51:03;37.00;;;19.97;;
44456;SDS011;30159;49.316;8.558;2023-02-11T00:53:31;43.97;;;21.67;;
44456;SDS011;30159;49.316;8.558;2023-02-11T00:55:58;40.90;;;21.60;;
44456;SDS011;30159;49.316;8.558;2023-02-11T00:58:25;44.23;;;22.70;;
44456;SDS011;30159;49.316;8.558;2023-02-11T01:00:52;44.97;;;20.97;;
44456;SDS011;30159;49.316;8.558;2023-02-11T01:03:20;34.00;;;19.70;;
44456;SDS011;30159;49.316;8.558;2023-02-11T01:05:47;43.20;;;21.70;;
44456;SDS011;30159;49.316;8.558;2023-02-11T01:08:14;43.47;;;21.73;;
44456;SDS011;30159;49.316;8.558;2023-02-11T01:10:40;38.67;;;20.10;;
44456;SDS011;30159;49.316;8.558;2023-02-11T01:13:08;42.60;;;20.40;;
44456;SDS011;30159;49.316;8.558;2023-02-11T01:15:34;42.97;;;20.60;;
44456;SDS011;30159;49.316;8.558;2023-02-11T01:18:01;43.87;;;21.07;;
44456;SDS011;30159;49.316;8.558;2023-02-11T01:20:31;43.73;;;21.43;;
44456;SDS011;30159;49.316;8.558;2023-02-11T01:22:57;39.30;;;20.30;;
44456;SDS011;30159;49.316;8.558;2023-02-11T01:25:24;34.90;;;19.50;;
44456;SDS011;30159;49.316;8.558;2023-02-11T01:27:50;43.93;;;21.70;;
44456;SDS011;30159;49.316;8.558;2023-02-11T01:30:17;46.70;;;21.07;;
44456;SDS011;30159;49.316;8.558;2023-02-11T01:32:43;48.90;;;21.33;;
44456;SDS011;30159;49.316;8.558;2023-02-11T01:35:10;47.03;;;20.93;;
44456;SDS011;30159;49.316;8.558;2023-02-11T01:37:38;44.37;;;22.20;;
44456;SDS011;30159;49.316;8.558;2023-02-11T01:40:05;40.23;;;21.20;;
44456;SDS011;30159;49.316;8.558;2023-02-11T01:42:36;41.93;;;22.77;;
44456;SDS011;30159;49.316;8.558;2023-02-11T01:48:03;43.20;;;20.87;;
44456;SDS011;30159;49.316;8.558;2023-02-11T01:50:30;37.23;;;21.37;;
44456;SDS011;30159;49.316;8.558;2023-02-11T01:52:58;44.80;;;21.67;;
44456;SDS011;30159;49.316;8.558;2023-02-11T01:55:45;42.73;;;21.27;;
44456;SDS011;30159;49.316;8.558;2023-02-11T01:58:29;42.00;;;21.50;;
44456;SDS011;30159;49.316;8.558;2023-02-11T02:01:01;36.83;;;20.20;;
44456;SDS011;30159;49.316;8.558;2023-02-11T02:03:31;50.43;;;24.30;;
44456;SDS011;30159;49.316;8.558;2023-02-11T02:06:02;45.10;;;22.23;;
44456;SDS011;30159;49.316;8.558;2023-02-11T02:08:35;45.27;;;24.27;;
44456;SDS011;30159;49.316;8.558;2023-02-11T02:11:05;43.73;;;21.90;;
44456;SDS011;30159;49.316;8.558;2023-02-11T02:13:33;42.40;;;21.90;;
44456;SDS011;30159;49.316;8.558;2023-02-11T02:16:01;45.23;;;22.70;;
44456;SDS011;30159;49.316;8.558;2023-02-11T02:18:33;45.03;;;22.37;;
44456;SDS011;30159;49.316;8.558;2023-02-11T02:21:15;44.17;;;22.63;;
44456;SDS011;30159;49.316;8.558;2023-02-11T02:24:10;44.43;;;23.53;;
44456;SDS011;30159;49.316;8.558;2023-02-11T02:27:00;46.07;;;21.40;;
44456;SDS011;30159;49.316;8.558;2023-02-11T02:29:39;49.57;;;22.63;;
44456;SDS011;30159;49.316;8.558;2023-02-11T02:32:27;44.30;;;21.40;;
44456;SDS011;30159;49.316;8.558;2023-02-11T02:35:01;51.00;;;22.97;;
44456;SDS011;30159;49.316;8.558;2023-02-11T02:37:35;47.37;;;23.10;;
44456;SDS011;30159;49.316;8.558;2023-02-11T02:40:08;50.57;;;23.80;;
44456;SDS011;30159;49.316;8.558;2023-02-11T02:42:38;43.13;;;22.40;;
44456;SDS011;30159;49.316;8.558;2023-02-11T02:45:06;47.30;;;23.33;;
44456;SDS011;30159;49.316;8.558;2023-02-11T02:47:37;55.23;;;22.60;;
44456;SDS011;30159;49.316;8.558;2023-02-11T02:50:04;39.07;;;21.73;;
44456;SDS011;30159;49.316;8.558;2023-02-11T02:52:34;47.97;;;23.93;;
44456;SDS011;30159;49.316;8.558;2023-02-11T02:57:55;39.73;;;21.53;;
44456;SDS011;30159;49.316;8.558;2023-02-11T03:00:37;46.70;;;22.50;;
44456;SDS011;30159;49.316;8.558;2023-02-11T03:03:14;35.00;;;20.33;;
44456;SDS011;30159;49.316;8.558;2023-02-11T03:05:48;40.60;;;21.50;;
44456;SDS011;30159;49.316;8.558;2023-02-11T03:08:23;38.00;;;21.07;;
44456;SDS011;30159;49.316;8.558;2023-02-11T03:10:52;43.57;;;23.40;;
44456;SDS011;30159;49.316;8.558;2023-02-11T03:13:23;45.57;;;24.10;;
44456;SDS011;30159;49.316;8.558;2023-02-11T03:15:53;37.33;;;21.70;;
44456;SDS011;30159;49.316;8.558;2023-02-11T03:18:25;45.23;;;21.90;;
44456;SDS011;30159;49.316;8.558;2023-02-11T03:20:54;40.80;;;20.80;;
44456;SDS011;30159;49.316;8.558;2023-02-11T03:23:22;41.07;;;20.37;;
44456;SDS011;30159;49.316;8.558;2023-02-11T03:25:54;33.87;;;19.83;;
44456;SDS011;30159;49.316;8.558;2023-02-11T03:28:26;39.67;;;20.10;;
44456;SDS011;30159;49.316;8.558;2023-02-11T03:30:56;42.20;;;22.93;;
44456;SDS011;30159;49.316;8.558;2023-02-11T03:33:32;42.63;;;21.60;;
44456;SDS011;30159;49.316;8.558;2023-02-11T03:36:05;42.43;;;22.00;;
44456;SDS011;30159;49.316;8.558;2023-02-11T03:38:36;39.80;;;21.70;;
44456;SDS011;30159;49.316;8.558;2023-02-11T03:41:09;45.13;;;23.87;;
44456;SDS011;30159;49.316;8.558;2023-02-11T03:43:41;46.17;;;23.50;;
44456;SDS011;30159;49.316;8.558;2023-02-11T03:46:10;49.50;;;23.40;;
44456;SDS011;30159;49.316;8.558;2023-02-11T03:48:42;43.13;;;22.47;;
44456;SDS011;30159;49.316;8.558;2023-02-11T03:51:12;47.20;;;23.23;;
44456;SDS011;30159;49.316;8.558;2023-02-11T03:53:42;44.20;;;21.97;;
44456;SDS011;30159;49.316;8.558;2023-02-11T03:56:12;42.63;;;22.27;;
44456;SDS011;30159;49.316;8.558;2023-02-11T03:58:43;49.50;;;24.20;;
44456;SDS011;30159;49.316;8.558;2023-02-11T04:01:09;45.63;;;22.63;;
44456;SDS011;30159;49.316;8.558;2023-02-11T04:03:36;44.50;;;21.70;;
44456;SDS011;30159;49.316;8.558;2023-02-11T04:06:04;44.67;;;24.40;;
44456;SDS011;30159;49.316;8.558;2023-02-11T04:08:31;51.30;;;24.13;;
44456;SDS011;30159;49.316;8.558;2023-02-11T04:10:58;46.50;;;23.77;;
44456;SDS011;30159;49.316;8.558;2023-02-11T04:13:24;42.97;;;22.30;;
44456;SDS011;30159;49.316;8.558;2023-02-11T04:15:52;48.30;;;22.93;;
44456;SDS011;30159;49.316;8.558;2023-02-11T04:18:18;46.80;;;23.10;;
44456;SDS011;30159;49.316;8.558;2023-02-11T04:20:45;48.23;;;22.17;;
44456;SDS011;30159;49.316;8.558;2023-02-11T04:23:12;46.00;;;22.87;;
44456;SDS011;30159;49.316;8.558;2023-02-11T04:25:39;45.50;;;22.77;;
44456;SDS011;30159;49.316;8.558;2023-02-11T04:28:05;39.53;;;22.33;;
44456;SDS011;30159;49.316;8.558;2023-02-11T04:30:32;44.97;;;23.03;;
44456;SDS011;30159;49.316;8.558;2023-02-11T04:32:58;38.93;;;20.97;;
44456;SDS011;30159;49.316;8.558;2023-02-11T04:35:25;42.27;;;23.47;;
44456;SDS011;30159;49.316;8.558;2023-02-11T04:37:51;43.03;;;22.63;;
44456;SDS011;30159;49.316;8.558;2023-02-11T04:40:19;39.10;;;21.60;;
44456;SDS011;30159;49.316;8.558;2023-02-11T04:42:46;45.13;;;22.73;;
44456;SDS011;30159;49.316;8.558;2023-02-11T04:45:12;40.90;;;20.73;;
44456;SDS011;30159;49.316;8.558;2023-02-11T04:47:42;39.80;;;21.03;;
44456;SDS011;30159;49.316;8.558;2023-02-11T04:50:08;41.10;;;21.50;;
44456;SDS011;30159;49.316;8.558;2023-02-11T04:52:35;36.67;;;19.60;;
44456;SDS011;30159;49.316;8.558;2023-02-11T04:55:02;37.87;;;19.60;;
44456;SDS011;30159;49.316;8.558;2023-02-11T04:57:30;38.87;;;20.23;;
44456;SDS011;30159;49.316;8.558;2023-02-11T04:59:56;38.67;;;20.80;;
44456;SDS011;30159;49.316;8.558;2023-02-11T05:02:23;45.43;;;21.63;;
44456;SDS011;30159;49.316;8.558;2023-02-11T05:04:49;34.00;;;19.00;;
44456;SDS011;30159;49.316;8.558;2023-02-11T05:07:15;34.83;;;19.30;;
44456;SDS011;30159;49.316;8.558;2023-02-11T05:09:42;39.57;;;19.73;;
44456;SDS011;30159;49.316;8.558;2023-02-11T05:12:08;36.63;;;19.13;;
44456;SDS011;30159;49.316;8.558;2023-02-11T05:14:36;39.40;;;20.33;;
44456;SDS011;30159;49.316;8.558;2023-02-11T05:17:03;39.53;;;19.70;;
44456;SDS011;30159;49.316;8.558;2023-02-11T05:19:29;37.23;;;19.30;;
44456;SDS011;30159;49.316;8.558;2023-02-11T05:21:56;33.53;;;18.87;;
44456;SDS011;30159;49.316;8.558;2023-02-11T05:24:23;35.10;;;18.63;;
44456;SDS011;30159;49.316;8.558;2023-02-11T05:26:49;33.77;;;18.80;;
44456;SDS011;30159;49.316;8.558;2023-02-11T05:29:16;33.03;;;19.30;;
44456;SDS011;30159;49.316;8.558;2023-02-11T05:31:44;37.90;;;19.17;;
44456;SDS011;30159;49.316;8.558;2023-02-11T05:34:10;35.93;;;18.90;;
44456;SDS011;30159;49.316;8.558;2023-02-11T05:36:37;35.30;;;19.20;;
44456;SDS011;30159;49.316;8.558;2023-02-11T05:39:03;36.77;;;18.77;;
44456;SDS011;30159;49.316;8.558;2023-02-11T05:41:30;38.83;;;18.63;;
44456;SDS011;30159;49.316;8.558;2023-02-11T05:43:56;36.83;;;17.17;;
44456;SDS011;30159;49.316;8.558;2023-02-11T05:46:23;36.43;;;18.30;;
44456;SDS011;30159;49.316;8.558;2023-02-11T05:48:51;33.47;;;17.40;;
44456;SDS011;30159;49.316;8.558;2023-02-11T05:51:17;35.00;;;18.60;;
44456;SDS011;30159;49.316;8.558;2023-02-11T05:53:44;29.57;;;17.63;;
44456;SDS011;30159;49.316;8.558;2023-02-11T05:56:10;46.67;;;19.00;;
44456;SDS011;30159;49.316;8.558;2023-02-11T05:58:38;36.73;;;18.20;;
44456;SDS011;30159;49.316;8.558;2023-02-11T06:01:05;38.03;;;19.73;;
44456;SDS011;30159;49.316;8.558;2023-02-11T06:03:31;37.60;;;20.47;;
44456;SDS011;30159;49.316;8.558;2023-02-11T06:05:59;38.00;;;19.27;;
44456;SDS011;30159;49.316;8.558;2023-02-11T06:08:26;40.57;;;19.83;;
44456;SDS011;30159;49.316;8.558;2023-02-11T06:10:52;38.67;;;21.27;;
44456;SDS011;30159;49.316;8.558;2023-02-11T06:13:19;36.87;;;20.00;;
44456;SDS011;30159;49.316;8.558;2023-02-11T06:15:54;40.47;;;22.60;;
44456;SDS011;30159;49.316;8.558;2023-02-11T06:18:21;47.93;;;24.90;;
44456;SDS011;30159;49.316;8.558;2023-02-11T06:20:47;39.87;;;20.20;;
44456;SDS011;30159;49.316;8.558;2023-02-11T06:23:15;44.33;;;20.53;;
44456;SDS011;30159;49.316;8.558;2023-02-11T06:25:42;38.07;;;20.40;;
44456;SDS011;30159;49.316;8.558;2023-02-11T06:28:08;36.53;;;20.10;;
44456;SDS011;30159;49.316;8.558;2023-02-11T06:30:35;39.07;;;20.17;;
44456;SDS011;30159;49.316;8.558;2023-02-11T06:33:02;37.53;;;20.13;;
44456;SDS011;30159;49.316;8.558;2023-02-11T06:35:29;38.93;;;18.97;;
44456;SDS011;30159;49.316;8.558;2023-02-11T06:37:57;37.30;;;19.73;;
44456;SDS011;30159;49.316;8.558;2023-02-11T06:40:25;37.40;;;19.33;;
44456;SDS011;30159;49.316;8.558;2023-02-11T06:42:52;35.13;;;17.90;;
44456;SDS011;30159;49.316;8.558;2023-02-11T06:45:18;37.03;;;19.50;;
44456;SDS011;30159;49.316;8.558;2023-02-11T06:47:45;37.27;;;20.63;;
44456;SDS011;30159;49.316;8.558;2023-02-11T06:50:12;38.83;;;17.87;;
44456;SDS011;30159;49.316;8.558;2023-02-11T06:52:39;35.47;;;19.20;;
44456;SDS011;30159;49.316;8.558;2023-02-11T06:55:07;37.03;;;19.20;;
44456;SDS011;30159;49.316;8.558;2023-02-11T06:57:35;46.00;;;20.20;;
44456;SDS011;30159;49.316;8.558;2023-02-11T07:00:02;38.40;;;18.60;;
44456;SDS011;30159;49.316;8.558;2023-02-11T07:02:29;41.40;;;20.13;;
44456;SDS011;30159;49.316;8.558;2023-02-11T07:04:55;39.73;;;18.97;;
44456;SDS011;30159;49.316;8.558;2023-02-11T07:07:22;45.90;;;20.97;;
44456;SDS011;30159;49.316;8.558;2023-02-11T07:09:48;38.00;;;19.43;;
44456;SDS011;30159;49.316;8.558;2023-02-11T07:12:15;39.07;;;20.77;;
44456;SDS011;30159;49.316;8.558;2023-02-11T07:14:43;37.70;;;19.90;;
44456;SDS011;30159;49.316;8.558;2023-02-11T07:17:09;45.30;;;22.00;;
44456;SDS011;30159;49.316;8.558;2023-02-11T07:19:36;43.47;;;21.90;;
44456;SDS011;30159;49.316;8.558;2023-02-11T07:22:02;42.63;;;20.43;;
44456;SDS011;30159;49.316;8.558;2023-02-11T07:24:29;43.93;;;23.77;;
44456;SDS011;30159;49.316;8.558;2023-02-11T07:26:55;46.37;;;21.13;;
44456;SDS011;30159;49.316;8.558;2023-02-11T07:29:22;51.47;;;21.63;;
44456;SDS011;30159;49.316;8.558;2023-02-11T07:31:50;41.83;;;21.00;;
44456;SDS011;30159;49.316;8.558;2023-02-11T07:34:18;37.67;;;19.73;;
44456;SDS011;30159;49.316;8.558;2023-02-11T07:36:44;45.63;;;22.10;;
44456;SDS011;30159;49.316;8.558;2023-02-11T07:39:13;40.47;;;21.80;;
44456;SDS011;30159;49.316;8.558;2023-02-11T07:41:39;38.83;;;20.80;;
44456;SDS011;30159;49.316;8.558;2023-02-11T07:44:06;42.60;;;21.23;;
44456;SDS011;30159;49.316;8.558;2023-02-11T07:46:33;38.40;;;18.87;;
44456;SDS011;30159;49.316;8.558;2023-02-11T07:49:01;39.80;;;19.40;;
44456;SDS011;30159;49.316;8.558;2023-02-11T07:51:28;32.87;;;19.73;;
44456;SDS011;30159;49.316;8.558;2023-02-11T07:53:56;41.00;;;20.47;;
44456;SDS011;30159;49.316;8.558;2023-02-11T07:56:24;35.43;;;19.43;;
44456;SDS011;30159;49.316;8.558;2023-02-11T07:58:52;43.70;;;21.03;;
44456;SDS011;30159;49.316;8.558;2023-02-11T08:01:20;43.80;;;19.80;;
44456;SDS011;30159;49.316;8.558;2023-02-11T08:03:50;34.17;;;17.60;;
44456;SDS011;30159;49.316;8.558;2023-02-11T08:06:18;36.83;;;19.20;;
44456;SDS011;30159;49.316;8.558;2023-02-11T08:08:46;39.37;;;19.37;;
44456;SDS011;30159;49.316;8.558;2023-02-11T08:11:14;41.63;;;20.97;;
44456;SDS011;30159;49.316;8.558;2023-02-11T08:13:42;34.63;;;18.37;;
44456;SDS011;30159;49.316;8.558;2023-02-11T08:16:09;39.60;;;19.93;;
44456;SDS011;30159;49.316;8.558;2023-02-11T08:18:44;37.47;;;18.30;;
44456;SDS011;30159;49.316;8.558;2023-02-11T08:21:10;48.73;;;20.73;;
44456;SDS011;30159;49.316;8.558;2023-02-11T08:23:39;34.20;;;18.83;;
44456;SDS011;30159;49.316;8.558;2023-02-11T08:26:07;34.10;;;18.90;;
44456;SDS011;30159;49.316;8.558;2023-02-11T08:28:35;36.13;;;19.17;;
44456;SDS011;30159;49.316;8.558;2023-02-11T08:31:04;45.13;;;21.70;;
44456;SDS011;30159;49.316;8.558;2023-02-11T08:33:31;35.67;;;20.23;;
44456;SDS011;30159;49.316;8.558;2023-02-11T08:35:58;40.90;;;20.03;;
44456;SDS011;30159;49.316;8.558;2023-02-11T08:38:25;37.97;;;19.67;;
44456;SDS011;30159;49.316;8.558;2023-02-11T08:40:53;36.27;;;19.13;;
44456;SDS011;30159;49.316;8.558;2023-02-11T08:43:19;36.87;;;19.30;;
44456;SDS011;30159;49.316;8.558;2023-02-11T08:45:47;37.57;;;20.20;;
44456;SDS011;30159;49.316;8.558;2023-02-11T08:48:13;35.13;;;19.67;;
44456;SDS011;30159;49.316;8.558;2023-02-11T08:50:40;36.53;;;19.17;;
44456;SDS011;30159;49.316;8.558;2023-02-11T08:53:06;41.10;;;20.07;;
44456;SDS011;30159;49.316;8.558;2023-02-11T08:55:33;33.63;;;18.30;;
44456;SDS011;30159;49.316;8.558;2023-02-11T08:58:01;36.17;;;20.07;;
44456;SDS011;30159;49.316;8.558;2023-02-11T09:00:27;36.17;;;19.63;;
44456;SDS011;30159;49.316;8.558;2023-02-11T09:02:54;41.40;;;22.90;;
44456;SDS011;30159;49.316;8.558;2023-02-11T09:05:21;42.40;;;21.53;;
44456;SDS011;30159;49.316;8.558;2023-02-11T09:07:47;39.93;;;20.97;;
44456;SDS011;30159;49.316;8.558;2023-02-11T09:10:14;40.47;;;19.93;;
44456;SDS011;30159;49.316;8.558;2023-02-11T09:12:41;35.40;;;18.77;;
44456;SDS011;30159;49.316;8.558;2023-02-11T09:15:09;36.20;;;19.63;;
44456;SDS011;30159;49.316;8.558;2023-02-11T09:17:35;33.17;;;19.67;;
44456;SDS011;30159;49.316;8.558;2023-02-11T09:20:02;32.60;;;19.53;;
44456;SDS011;30159;49.316;8.558;2023-02-11T09:22:29;33.03;;;20.30;;
44456;SDS011;30159;49.316;8.558;2023-02-11T09:24:55;36.60;;;18.70;;
44456;SDS011;30159;49.316;8.558;2023-02-11T09:27:22;37.17;;;19.60;;
44456;SDS011;30159;49.316;8.558;2023-02-11T09:29:48;34.20;;;19.40;;
44456;SDS011;30159;49.316;8.558;2023-02-11T09:32:16;37.37;;;18.50;;
44456;SDS011;30159;49.316;8.558;2023-02-11T09:34:43;33.80;;;18.20;;
44456;SDS011;30159;49.316;8.558;2023-02-11T09:37:09;38.93;;;19.60;;
44456;SDS011;30159;49.316;8.558;2023-02-11T09:39:36;32.43;;;18.93;;
44456;SDS011;30159;49.316;8.558;2023-02-11T09:45:10;38.13;;;18.27;;
44456;SDS011;30159;49.316;8.558;2023-02-11T09:47:44;27.73;;;15.70;;
44456;SDS011;30159;49.316;8.558;2023-02-11T09:50:14;32.30;;;17.57;;
44456;SDS011;30159;49.316;8.558;2023-02-11T09:52:49;26.13;;;16.00;;
44456;SDS011;30159;49.316;8.558;2023-02-11T09:55:20;31.17;;;17.17;;
44456;SDS011;30159;49.316;8.558;2023-02-11T09:57:50;32.07;;;17.00;;
44456;SDS011;30159;49.316;8.558;2023-02-11T10:00:19;30.53;;;15.23;;
44456;SDS011;30159;49.316;8.558;2023-02-11T10:05:47;27.87;;;16.20;;
44456;SDS011;30159;49.316;8.558;2023-02-11T10:08:30;31.23;;;15.00;;
44456;SDS011;30159;49.316;8.558;2023-02-11T10:11:06;27.77;;;15.60;;
44456;SDS011;30159;49.316;8.558;2023-02-11T10:13:43;25.60;;;16.20;;
44456;SDS011;30159;49.316;8.558;2023-02-11T10:16:21;25.83;;;14.83;;
44456;SDS011;30159;49.316;8.558;2023-02-11T10:19:02;27.50;;;15.40;;
44456;SDS011;30159;49.316;8.558;2023-02-11T10:21:39;23.83;;;15.40;;
44456;SDS011;30159;49.316;8.558;2023-02-11T10:24:15;29.27;;;16.30;;
44456;SDS011;30159;49.316;8.558;2023-02-11T10:26:43;21.53;;;14.10;;
44456;SDS011;30159;49.316;8.558;2023-02-11T10:29:12;23.27;;;14.20;;
44456;SDS011;30159;49.316;8.558;2023-02-11T10:31:46;25.40;;;14.40;;
44456;SDS011;30159;49.316;8.558;2023-02-11T10:34:16;23.10;;;15.37;;
44456;SDS011;30159;49.316;8.558;2023-02-11T10:36:43;25.90;;;14.60;;
44456;SDS011;30159;49.316;8.558;2023-02-11T10:39:11;20.70;;;13.97;;
44456;SDS011;30159;49.316;8.558;2023-02-11T10:41:40;23.50;;;14.50;;
44456;SDS011;30159;49.316;8.558;2023-02-11T10:44:11;24.07;;;15.10;;
44456;SDS011;30159;49.316;8.558;2023-02-11T10:46:47;24.50;;;15.07;;
44456;SDS011;30159;49.316;8.558;2023-02-11T10:52:12;20.07;;;11.67;;
44456;SDS011;30159;49.316;8.558;2023-02-11T10:54:56;22.73;;;13.47;;
44456;SDS011;30159;49.316;8.558;2023-02-11T10:57:29;19.27;;;13.43;;
44456;SDS011;30159;49.316;8.558;2023-02-11T10:59:58;19.57;;;12.90;;
44456;SDS011;30159;49.316;8.558;2023-02-11T11:02:28;20.00;;;13.40;;
44456;SDS011;30159;49.316;8.558;2023-02-11T11:05:00;19.60;;;13.80;;
44456;SDS011;30159;49.316;8.558;2023-02-11T11:07:28;25.93;;;14.40;;
44456;SDS011;30159;49.316;8.558;2023-02-11T11:09:57;25.40;;;14.33;;
44456;SDS011;30159;49.316;8.558;2023-02-11T11:12:28;23.43;;;15.00;;
44456;SDS011;30159;49.316;8.558;2023-02-11T11:14:57;25.50;;;14.07;;
44456;SDS011;30159;49.316;8.558;2023-02-11T11:17:25;22.67;;;14.50;;
44456;SDS011;30159;49.316;8.558;2023-02-11T11:19:53;30.40;;;14.90;;
44456;SDS011;30159;49.316;8.558;2023-02-11T11:22:37;20.77;;;14.33;;
44456;SDS011;30159;49.316;8.558;2023-02-11T11:25:03;28.97;;;15.90;;
44456;SDS011;30159;49.316;8.558;2023-02-11T11:27:31;25.60;;;15.73;;
44456;SDS011;30159;49.316;8.558;2023-02-11T11:29:58;22.33;;;13.53;;
44456;SDS011;30159;49.316;8.558;2023-02-11T11:32:26;23.13;;;14.30;;
44456;SDS011;30159;49.316;8.558;2023-02-11T11:34:58;20.63;;;13.77;;
44456;SDS011;30159;49.316;8.558;2023-02-11T11:37:27;20.47;;;13.10;;
44456;SDS011;30159;49.316;8.558;2023-02-11T11:39:57;19.63;;;12.77;;
44456;SDS011;30159;49.316;8.558;2023-02-11T11:42:28;19.70;;;13.27;;
44456;SDS011;30159;49.316;8.558;2023-02-11T11:44:56;22.97;;;13.97;;
44456;SDS011;30159;49.316;8.558;2023-02-11T11:47:26;19.03;;;11.97;;
44456;SDS011;30159;49.316;8.558;2023-02-11T11:52:53;19.60;;;13.47;;
44456;SDS011;30159;49.316;8.558;2023-02-11T11:55:27;23.93;;;13.53;;
44456;SDS011;30159;49.316;8.558;2023-02-11T11:57:59;18.83;;;13.17;;
44456;SDS011;30159;49.316;8.558;2023-02-11T12:00:26;21.50;;;14.50;;
44456;SDS011;30159;49.316;8.558;2023-02-11T12:06:17;21.83;;;13.33;;
44456;SDS011;30159;49.316;8.558;2023-02-11T12:08:54;24.80;;;15.53;;
44456;SDS011;30159;49.316;8.558;2023-02-11T12:11:33;21.00;;;13.77;;
44456;SDS011;30159;49.316;8.558;2023-02-11T12:14:12;25.27;;;14.27;;
44456;SDS011;30159;49.316;8.558;2023-02-11T12:16:52;24.33;;;14.47;;
44456;SDS011;30159;49.316;8.558;2023-02-11T12:22:23;18.53;;;12.13;;
44456;SDS011;30159;49.316;8.558;2023-02-11T12:27:59;22.70;;;12.67;;
44456;SDS011;30159;49.316;8.558;2023-02-11T12:30:46;18.60;;;12.10;;
44456;SDS011;30159;49.316;8.558;2023-02-11T12:33:22;22.20;;;12.27;;
44456;SDS011;30159;49.316;8.558;2023-02-11T12:35:58;22.43;;;13.23;;
44456;SDS011;30159;49.316;8.558;2023-02-11T12:38:34;20.13;;;12.57;;
44456;SDS011;30159;49.316;8.558;2023-02-11T12:41:14;23.57;;;14.33;;
44456;SDS011;30159;49.316;8.558;2023-02-11T12:44:11;21.50;;;12.90;;
44456;SDS011;30159;49.316;8.558;2023-02-11T12:46:45;22.30;;;12.23;;
44456;SDS011;30159;49.316;8.558;2023-02-11T12:49:28;20.03;;;12.90;;
44456;SDS011;30159;49.316;8.558;2023-02-11T12:52:09;20.50;;;12.20;;
44456;SDS011;30159;49.316;8.558;2023-02-11T12:54:47;17.70;;;10.83;;
44456;SDS011;30159;49.316;8.558;2023-02-11T12:57:20;17.50;;;11.80;;
44456;SDS011;30159;49.316;8.558;2023-02-11T12:59:54;20.13;;;11.80;;
44456;SDS011;30159;49.316;8.558;2023-02-11T13:02:28;13.87;;;10.77;;
44456;SDS011;30159;49.316;8.558;2023-02-11T13:05:00;16.07;;;11.13;;
44456;SDS011;30159;49.316;8.558;2023-02-11T13:07:32;17.13;;;10.27;;
44456;SDS011;30159;49.316;8.558;2023-02-11T13:10:02;15.60;;;10.27;;
44456;SDS011;30159;49.316;8.558;2023-02-11T13:12:34;21.30;;;11.80;;
44456;SDS011;30159;49.316;8.558;2023-02-11T13:15:23;17.37;;;11.70;;
44456;SDS011;30159;49.316;8.558;2023-02-11T13:17:52;22.90;;;12.17;;
44456;SDS011;30159;49.316;8.558;2023-02-11T13:20:29;17.77;;;10.60;;
44456;SDS011;30159;49.316;8.558;2023-02-11T13:23:04;18.40;;;10.67;;
44456;SDS011;30159;49.316;8.558;2023-02-11T13:25:40;17.13;;;9.70;;
44456;SDS011;30159;49.316;8.558;2023-02-11T13:28:16;16.30;;;9.40;;
44456;SDS011;30159;49.316;8.558;2023-02-11T13:30:52;19.20;;;11.00;;
44456;SDS011;30159;49.316;8.558;2023-02-11T13:33:30;18.13;;;11.40;;
44456;SDS011;30159;49.316;8.558;2023-02-11T13:38:56;19.47;;;11.80;;
44456;SDS011;30159;49.316;8.558;2023-02-11T13:41:26;16.90;;;11.43;;
44456;SDS011;30159;49.316;8.558;2023-02-11T13:43:56;16.77;;;11.73;;
44456;SDS011;30159;49.316;8.558;2023-02-11T13:46:27;28.40;;;12.70;;
44456;SDS011;30159;49.316;8.558;2023-02-11T13:49:16;20.30;;;13.10;;
44456;SDS011;30159;49.316;8.558;2023-02-11T13:51:44;21.23;;;12.07;;
44456;SDS011;30159;49.316;8.558;2023-02-11T13:54:17;17.97;;;11.70;;
44456;SDS011;30159;49.316;8.558;2023-02-11T13:59:52;16.13;;;11.40;;
44456;SDS011;30159;49.316;8.558;2023-02-11T14:02:26;17.03;;;11.43;;
44456;SDS011;30159;49.316;8.558;2023-02-11T14:05:23;15.87;;;10.20;;
44456;SDS011;30159;49.316;8.558;2023-02-11T14:08:20;17.73;;;12.40;;
44456;SDS011;30159;49.316;8.558;2023-02-11T14:11:07;19.63;;;12.70;;
44456;SDS011;30159;49.316;8.558;2023-02-11T14:14:00;18.53;;;10.87;;
44456;SDS011;30159;49.316;8.558;2023-02-11T14:16:30;17.60;;;11.60;;
44456;SDS011;30159;49.316;8.558;2023-02-11T14:18:58;19.23;;;10.90;;
44456;SDS011;30159;49.316;8.558;2023-02-11T14:21:34;18.47;;;11.30;;
44456;SDS011;30159;49.316;8.558;2023-02-11T14:27:26;23.83;;;10.57;;
44456;SDS011;30159;49.316;8.558;2023-02-11T14:30:08;18.93;;;10.47;;
44456;SDS011;30159;49.316;8.558;2023-02-11T14:32:50;17.50;;;10.40;;
44456;SDS011;30159;49.316;8.558;2023-02-11T14:35:30;19.43;;;12.30;;
44456;SDS011;30159;49.316;8.558;2023-02-11T14:38:03;20.43;;;11.60;;
44456;SDS011;30159;49.316;8.558;2023-02-11T14:40:38;20.10;;;12.03;;
44456;SDS011;30159;49.316;8.558;2023-02-11T14:43:11;16.30;;;10.70;;
44456;SDS011;30159;49.316;8.558;2023-02-11T14:45:47;19.70;;;10.67;;
44456;SDS011;30159;49.316;8.558;2023-02-11T14:48:19;18.53;;;11.80;;
44456;SDS011;30159;49.316;8.558;2023-02-11T14:50:52;19.30;;;12.07;;
44456;SDS011;30159;49.316;8.558;2023-02-11T14:53:24;21.03;;;11.70;;
44456;SDS011;30159;49.316;8.558;2023-02-11T14:55:51;23.13;;;12.27;;
44456;SDS011;30159;49.316;8.558;2023-02-11T14:58:20;17.53;;;11.10;;
44456;SDS011;30159;49.316;8.558;2023-02-11T15:00:52;20.50;;;11.13;;
44456;SDS011;30159;49.316;8.558;2023-02-11T15:03:24;15.27;;;9.40;;
44456;SDS011;30159;49.316;8.558;2023-02-11T15:05:58;20.47;;;10.40;;
44456;SDS011;30159;49.316;8.558;2023-02-11T15:08:26;22.97;;;11.30;;
44456;SDS011;30159;49.316;8.558;2023-02-11T15:10:57;18.77;;;11.23;;
44456;SDS011;30159;49.316;8.558;2023-02-11T15:13:28;19.63;;;12.37;;
44456;SDS011;30159;49.316;8.558;2023-02-11T15:15:57;16.37;;;10.60;;